Terminal Aerodrome Forecast
Issued by NWS Grand Forks, ND

Home | Current Version | Previous Version | Text Only | Print | Product List | Glossary Off
Versions: 1 2 3 4 5 6 7 8 9 10 11 12 13 14 15 16 17 18 19 20 21 22 23 24

771
FTUS43 KFGF 181126
TAFFAR
TAF
KFAR 181126Z 1812/1912 09012KT 2SM -SN OVC030
     FM181300 08013KT 2SM -SN OVC035
     FM181400 07012KT 1SM -SN OVC035
     FM181600 06012KT P6SM OVC020
      TEMPO 1816/1817 3/4SM -SN OVC007
     FM181700 04013KT P6SM OVC015
     FM182200 36017G25KT P6SM OVC015
     FM190100 36015KT P6SM BKN035=

USA.gov is the U.S. government's official web portal to all federal, state and local government web resources and services.